sensor_id;sensor_type;location;lat;lon;timestamp;P1;durP1;ratioP1;P2;durP2;ratioP2
43152;SDS011;28756;49.064;9.290;2023-04-24T00:00:55;0.82;;;0.50;;
43152;SDS011;28756;49.064;9.290;2023-04-24T00:03:22;1.77;;;0.50;;
43152;SDS011;28756;49.064;9.290;2023-04-24T00:05:48;0.88;;;0.47;;
43152;SDS011;28756;49.064;9.290;2023-04-24T00:08:15;1.23;;;0.50;;
43152;SDS011;28756;49.064;9.290;2023-04-24T00:10:42;0.88;;;0.50;;
43152;SDS011;28756;49.064;9.290;2023-04-24T00:13:08;0.60;;;0.45;;
43152;SDS011;28756;49.064;9.290;2023-04-24T00:15:34;1.83;;;0.55;;
43152;SDS011;28756;49.064;9.290;2023-04-24T00:17:59;1.17;;;0.60;;
43152;SDS011;28756;49.064;9.290;2023-04-24T00:20:26;1.20;;;0.50;;
43152;SDS011;28756;49.064;9.290;2023-04-24T00:22:57;0.98;;;0.60;;
43152;SDS011;28756;49.064;9.290;2023-04-24T00:25:23;1.00;;;0.40;;
43152;SDS011;28756;49.064;9.290;2023-04-24T00:27:49;1.35;;;0.57;;
43152;SDS011;28756;49.064;9.290;2023-04-24T00:30:15;1.40;;;0.57;;
43152;SDS011;28756;49.064;9.290;2023-04-24T00:32:41;0.98;;;0.60;;
43152;SDS011;28756;49.064;9.290;2023-04-24T00:35:06;1.48;;;0.50;;
43152;SDS011;28756;49.064;9.290;2023-04-24T00:37:32;0.70;;;0.50;;
43152;SDS011;28756;49.064;9.290;2023-04-24T00:39:58;0.50;;;0.40;;
43152;SDS011;28756;49.064;9.290;2023-04-24T00:42:24;0.98;;;0.60;;
43152;SDS011;28756;49.064;9.290;2023-04-24T00:44:50;1.17;;;0.57;;
43152;SDS011;28756;49.064;9.290;2023-04-24T00:47:17;0.88;;;0.40;;
43152;SDS011;28756;49.064;9.290;2023-04-24T00:49:45;1.55;;;0.45;;
43152;SDS011;28756;49.064;9.290;2023-04-24T00:52:10;0.60;;;0.50;;
43152;SDS011;28756;49.064;9.290;2023-04-24T00:54:37;0.88;;;0.55;;
43152;SDS011;28756;49.064;9.290;2023-04-24T00:57:03;0.80;;;0.57;;
43152;SDS011;28756;49.064;9.290;2023-04-24T00:59:29;0.93;;;0.50;;
43152;SDS011;28756;49.064;9.290;2023-04-24T01:01:56;0.98;;;0.60;;
43152;SDS011;28756;49.064;9.290;2023-04-24T01:04:23;0.82;;;0.50;;
43152;SDS011;28756;49.064;9.290;2023-04-24T01:06:51;0.77;;;0.47;;
43152;SDS011;28756;49.064;9.290;2023-04-24T01:09:17;0.73;;;0.40;;
43152;SDS011;28756;49.064;9.290;2023-04-24T01:11:43;2.10;;;0.60;;
43152;SDS011;28756;49.064;9.290;2023-04-24T01:14:09;1.00;;;0.50;;
43152;SDS011;28756;49.064;9.290;2023-04-24T01:16:35;1.50;;;0.55;;
43152;SDS011;28756;49.064;9.290;2023-04-24T01:19:03;0.63;;;0.50;;
43152;SDS011;28756;49.064;9.290;2023-04-24T01:21:31;1.40;;;0.52;;
43152;SDS011;28756;49.064;9.290;2023-04-24T01:24:03;0.93;;;0.60;;
43152;SDS011;28756;49.064;9.290;2023-04-24T01:26:30;0.50;;;0.50;;
43152;SDS011;28756;49.064;9.290;2023-04-24T01:28:56;1.20;;;0.50;;
43152;SDS011;28756;49.064;9.290;2023-04-24T01:31:24;1.38;;;0.63;;
43152;SDS011;28756;49.064;9.290;2023-04-24T01:33:50;1.30;;;0.57;;
43152;SDS011;28756;49.064;9.290;2023-04-24T01:36:17;1.05;;;0.68;;
43152;SDS011;28756;49.064;9.290;2023-04-24T01:38:44;1.33;;;0.47;;
43152;SDS011;28756;49.064;9.290;2023-04-24T01:41:10;0.93;;;0.50;;
43152;SDS011;28756;49.064;9.290;2023-04-24T01:43:35;1.85;;;0.60;;
43152;SDS011;28756;49.064;9.290;2023-04-24T01:46:01;1.48;;;0.85;;
43152;SDS011;28756;49.064;9.290;2023-04-24T01:48:27;1.65;;;0.40;;
43152;SDS011;28756;49.064;9.290;2023-04-24T01:50:54;0.70;;;0.50;;
43152;SDS011;28756;49.064;9.290;2023-04-24T01:53:21;0.90;;;0.50;;
43152;SDS011;28756;49.064;9.290;2023-04-24T01:55:47;1.17;;;0.60;;
43152;SDS011;28756;49.064;9.290;2023-04-24T01:58:12;2.53;;;0.63;;
43152;SDS011;28756;49.064;9.290;2023-04-24T02:00:38;0.93;;;0.40;;
43152;SDS011;28756;49.064;9.290;2023-04-24T02:03:04;0.90;;;0.60;;
43152;SDS011;28756;49.064;9.290;2023-04-24T02:05:30;0.70;;;0.43;;
43152;SDS011;28756;49.064;9.290;2023-04-24T02:07:56;0.95;;;0.50;;
43152;SDS011;28756;49.064;9.290;2023-04-24T02:10:22;0.85;;;0.50;;
43152;SDS011;28756;49.064;9.290;2023-04-24T02:12:48;1.50;;;0.68;;
43152;SDS011;28756;49.064;9.290;2023-04-24T02:15:14;1.52;;;0.50;;
43152;SDS011;28756;49.064;9.290;2023-04-24T02:17:39;2.25;;;0.50;;
43152;SDS011;28756;49.064;9.290;2023-04-24T02:20:06;0.95;;;0.40;;
43152;SDS011;28756;49.064;9.290;2023-04-24T02:22:32;2.58;;;0.50;;
43152;SDS011;28756;49.064;9.290;2023-04-24T02:24:58;0.60;;;0.40;;
43152;SDS011;28756;49.064;9.290;2023-04-24T02:27:24;0.93;;;0.50;;
43152;SDS011;28756;49.064;9.290;2023-04-24T02:29:50;1.15;;;0.40;;
43152;SDS011;28756;49.064;9.290;2023-04-24T02:32:16;1.15;;;0.43;;
43152;SDS011;28756;49.064;9.290;2023-04-24T02:34:41;1.77;;;0.50;;
43152;SDS011;28756;49.064;9.290;2023-04-24T02:37:07;1.48;;;0.40;;
43152;SDS011;28756;49.064;9.290;2023-04-24T02:39:33;0.57;;;0.50;;
43152;SDS011;28756;49.064;9.290;2023-04-24T02:41:59;0.85;;;0.50;;
43152;SDS011;28756;49.064;9.290;2023-04-24T02:44:25;0.73;;;0.43;;
43152;SDS011;28756;49.064;9.290;2023-04-24T02:46:50;0.63;;;0.40;;
43152;SDS011;28756;49.064;9.290;2023-04-24T02:49:16;0.80;;;0.43;;
43152;SDS011;28756;49.064;9.290;2023-04-24T02:51:42;0.82;;;0.50;;
43152;SDS011;28756;49.064;9.290;2023-04-24T02:54:08;1.40;;;0.50;;
43152;SDS011;28756;49.064;9.290;2023-04-24T02:56:34;0.80;;;0.50;;
43152;SDS011;28756;49.064;9.290;2023-04-24T02:59:00;0.60;;;0.50;;
43152;SDS011;28756;49.064;9.290;2023-04-24T03:01:26;2.45;;;0.43;;
43152;SDS011;28756;49.064;9.290;2023-04-24T03:03:52;2.13;;;0.50;;
43152;SDS011;28756;49.064;9.290;2023-04-24T03:06:18;2.05;;;0.60;;
43152;SDS011;28756;49.064;9.290;2023-04-24T03:08:43;0.75;;;0.40;;
43152;SDS011;28756;49.064;9.290;2023-04-24T03:11:09;1.35;;;0.60;;
43152;SDS011;28756;49.064;9.290;2023-04-24T03:13:35;1.27;;;0.60;;
43152;SDS011;28756;49.064;9.290;2023-04-24T03:16:01;3.03;;;0.50;;
43152;SDS011;28756;49.064;9.290;2023-04-24T03:18:26;1.08;;;0.57;;
43152;SDS011;28756;49.064;9.290;2023-04-24T03:20:52;0.68;;;0.43;;
43152;SDS011;28756;49.064;9.290;2023-04-24T03:23:18;1.70;;;0.52;;
43152;SDS011;28756;49.064;9.290;2023-04-24T03:25:44;3.17;;;0.40;;
43152;SDS011;28756;49.064;9.290;2023-04-24T03:28:10;0.50;;;0.50;;
43152;SDS011;28756;49.064;9.290;2023-04-24T03:30:36;2.67;;;0.50;;
43152;SDS011;28756;49.064;9.290;2023-04-24T03:33:01;2.10;;;0.50;;
43152;SDS011;28756;49.064;9.290;2023-04-24T03:35:27;0.50;;;0.40;;
43152;SDS011;28756;49.064;9.290;2023-04-24T03:37:53;1.60;;;0.60;;
43152;SDS011;28756;49.064;9.290;2023-04-24T03:40:19;0.85;;;0.45;;
43152;SDS011;28756;49.064;9.290;2023-04-24T03:42:44;0.70;;;0.40;;
43152;SDS011;28756;49.064;9.290;2023-04-24T03:45:10;0.65;;;0.40;;
43152;SDS011;28756;49.064;9.290;2023-04-24T03:47:36;1.33;;;0.55;;
43152;SDS011;28756;49.064;9.290;2023-04-24T03:50:02;0.43;;;0.40;;
43152;SDS011;28756;49.064;9.290;2023-04-24T03:52:28;1.55;;;0.55;;
43152;SDS011;28756;49.064;9.290;2023-04-24T03:54:53;2.13;;;0.55;;
43152;SDS011;28756;49.064;9.290;2023-04-24T03:57:20;1.35;;;0.50;;
43152;SDS011;28756;49.064;9.290;2023-04-24T03:59:46;2.53;;;0.55;;
43152;SDS011;28756;49.064;9.290;2023-04-24T04:02:12;0.63;;;0.50;;
43152;SDS011;28756;49.064;9.290;2023-04-24T04:04:37;0.98;;;0.40;;
43152;SDS011;28756;49.064;9.290;2023-04-24T04:07:03;2.67;;;0.60;;
43152;SDS011;28756;49.064;9.290;2023-04-24T04:09:30;1.25;;;0.60;;
43152;SDS011;28756;49.064;9.290;2023-04-24T04:11:56;1.80;;;0.60;;
43152;SDS011;28756;49.064;9.290;2023-04-24T04:14:22;0.70;;;0.50;;
43152;SDS011;28756;49.064;9.290;2023-04-24T04:16:48;2.05;;;0.50;;
43152;SDS011;28756;49.064;9.290;2023-04-24T04:19:14;0.98;;;0.50;;
43152;SDS011;28756;49.064;9.290;2023-04-24T04:21:40;1.25;;;0.32;;
43152;SDS011;28756;49.064;9.290;2023-04-24T04:24:05;2.22;;;0.50;;
43152;SDS011;28756;49.064;9.290;2023-04-24T04:26:32;0.77;;;0.40;;
43152;SDS011;28756;49.064;9.290;2023-04-24T04:29:01;1.65;;;0.88;;
43152;SDS011;28756;49.064;9.290;2023-04-24T04:31:28;1.20;;;0.60;;
43152;SDS011;28756;49.064;9.290;2023-04-24T04:33:55;1.63;;;0.50;;
43152;SDS011;28756;49.064;9.290;2023-04-24T04:36:21;1.27;;;0.60;;
43152;SDS011;28756;49.064;9.290;2023-04-24T04:38:46;1.05;;;0.60;;
43152;SDS011;28756;49.064;9.290;2023-04-24T04:41:13;0.52;;;0.40;;
43152;SDS011;28756;49.064;9.290;2023-04-24T04:43:39;2.47;;;0.68;;
43152;SDS011;28756;49.064;9.290;2023-04-24T04:46:05;1.13;;;0.60;;
43152;SDS011;28756;49.064;9.290;2023-04-24T04:48:33;1.42;;;0.77;;
43152;SDS011;28756;49.064;9.290;2023-04-24T04:50:59;0.70;;;0.60;;
43152;SDS011;28756;49.064;9.290;2023-04-24T04:53:25;0.80;;;0.80;;
43152;SDS011;28756;49.064;9.290;2023-04-24T04:55:50;1.85;;;0.70;;
43152;SDS011;28756;49.064;9.290;2023-04-24T04:58:17;1.85;;;0.80;;
43152;SDS011;28756;49.064;9.290;2023-04-24T05:00:42;0.88;;;0.70;;
43152;SDS011;28756;49.064;9.290;2023-04-24T05:03:09;2.58;;;0.70;;
43152;SDS011;28756;49.064;9.290;2023-04-24T05:05:34;1.23;;;0.70;;
43152;SDS011;28756;49.064;9.290;2023-04-24T05:08:00;1.35;;;0.80;;
43152;SDS011;28756;49.064;9.290;2023-04-24T05:10:26;1.15;;;0.70;;
43152;SDS011;28756;49.064;9.290;2023-04-24T05:12:52;1.35;;;0.80;;
43152;SDS011;28756;49.064;9.290;2023-04-24T05:15:18;1.25;;;0.60;;
43152;SDS011;28756;49.064;9.290;2023-04-24T05:17:43;1.40;;;0.80;;
43152;SDS011;28756;49.064;9.290;2023-04-24T05:20:09;1.13;;;0.60;;
43152;SDS011;28756;49.064;9.290;2023-04-24T05:22:35;2.10;;;0.68;;
43152;SDS011;28756;49.064;9.290;2023-04-24T05:25:01;1.13;;;0.77;;
43152;SDS011;28756;49.064;9.290;2023-04-24T05:27:27;1.67;;;0.90;;
43152;SDS011;28756;49.064;9.290;2023-04-24T05:29:53;1.27;;;0.90;;
43152;SDS011;28756;49.064;9.290;2023-04-24T05:32:19;3.30;;;0.88;;
43152;SDS011;28756;49.064;9.290;2023-04-24T05:34:45;2.05;;;0.70;;
43152;SDS011;28756;49.064;9.290;2023-04-24T05:37:11;1.17;;;0.70;;
43152;SDS011;28756;49.064;9.290;2023-04-24T05:39:37;1.67;;;0.88;;
43152;SDS011;28756;49.064;9.290;2023-04-24T05:42:03;0.73;;;0.73;;
43152;SDS011;28756;49.064;9.290;2023-04-24T05:44:29;1.52;;;1.00;;
43152;SDS011;28756;49.064;9.290;2023-04-24T05:46:55;2.38;;;1.00;;
43152;SDS011;28756;49.064;9.290;2023-04-24T05:49:21;0.90;;;0.70;;
43152;SDS011;28756;49.064;9.290;2023-04-24T05:51:48;1.30;;;1.00;;
43152;SDS011;28756;49.064;9.290;2023-04-24T05:54:14;1.73;;;1.00;;
43152;SDS011;28756;49.064;9.290;2023-04-24T05:56:40;1.27;;;0.98;;
43152;SDS011;28756;49.064;9.290;2023-04-24T05:59:06;1.10;;;0.90;;
43152;SDS011;28756;49.064;9.290;2023-04-24T06:01:35;1.60;;;1.00;;
43152;SDS011;28756;49.064;9.290;2023-04-24T06:04:01;2.25;;;1.30;;
43152;SDS011;28756;49.064;9.290;2023-04-24T06:06:28;2.40;;;1.33;;
43152;SDS011;28756;49.064;9.290;2023-04-24T06:08:54;2.55;;;1.40;;
43152;SDS011;28756;49.064;9.290;2023-04-24T06:11:20;2.08;;;1.30;;
43152;SDS011;28756;49.064;9.290;2023-04-24T06:13:47;2.95;;;1.42;;
43152;SDS011;28756;49.064;9.290;2023-04-24T06:16:13;2.80;;;1.40;;
43152;SDS011;28756;49.064;9.290;2023-04-24T06:18:39;2.10;;;1.50;;
43152;SDS011;28756;49.064;9.290;2023-04-24T06:21:05;2.13;;;1.60;;
43152;SDS011;28756;49.064;9.290;2023-04-24T06:23:31;2.33;;;1.65;;
43152;SDS011;28756;49.064;9.290;2023-04-24T06:25:58;2.72;;;1.50;;
43152;SDS011;28756;49.064;9.290;2023-04-24T06:28:24;2.38;;;1.48;;
43152;SDS011;28756;49.064;9.290;2023-04-24T06:30:51;2.28;;;1.40;;
43152;SDS011;28756;49.064;9.290;2023-04-24T06:33:17;2.03;;;1.35;;
43152;SDS011;28756;49.064;9.290;2023-04-24T06:35:43;2.35;;;1.40;;
43152;SDS011;28756;49.064;9.290;2023-04-24T06:38:09;1.63;;;1.20;;
43152;SDS011;28756;49.064;9.290;2023-04-24T06:40:34;1.63;;;1.13;;
43152;SDS011;28756;49.064;9.290;2023-04-24T06:43:00;2.15;;;1.20;;
43152;SDS011;28756;49.064;9.290;2023-04-24T06:45:28;1.60;;;1.17;;
43152;SDS011;28756;49.064;9.290;2023-04-24T06:47:55;1.67;;;1.08;;
43152;SDS011;28756;49.064;9.290;2023-04-24T06:50:21;1.42;;;1.10;;
43152;SDS011;28756;49.064;9.290;2023-04-24T06:52:47;1.23;;;1.05;;
43152;SDS011;28756;49.064;9.290;2023-04-24T06:55:13;3.05;;;1.30;;
43152;SDS011;28756;49.064;9.290;2023-04-24T06:57:41;2.85;;;1.20;;
43152;SDS011;28756;49.064;9.290;2023-04-24T07:00:07;1.48;;;1.35;;
43152;SDS011;28756;49.064;9.290;2023-04-24T07:02:34;1.90;;;1.25;;
43152;SDS011;28756;49.064;9.290;2023-04-24T07:05:00;2.28;;;1.10;;
43152;SDS011;28756;49.064;9.290;2023-04-24T07:07:26;2.88;;;1.30;;
43152;SDS011;28756;49.064;9.290;2023-04-24T07:09:52;1.33;;;1.13;;
43152;SDS011;28756;49.064;9.290;2023-04-24T07:12:19;1.30;;;1.20;;
43152;SDS011;28756;49.064;9.290;2023-04-24T07:14:46;2.92;;;1.40;;
43152;SDS011;28756;49.064;9.290;2023-04-24T07:17:12;2.67;;;1.50;;
43152;SDS011;28756;49.064;9.290;2023-04-24T07:19:39;2.55;;;1.50;;
43152;SDS011;28756;49.064;9.290;2023-04-24T07:22:05;2.35;;;1.38;;
43152;SDS011;28756;49.064;9.290;2023-04-24T07:24:30;1.95;;;1.75;;
43152;SDS011;28756;49.064;9.290;2023-04-24T07:26:59;3.28;;;1.38;;
43152;SDS011;28756;49.064;9.290;2023-04-24T07:29:28;1.73;;;1.20;;
43152;SDS011;28756;49.064;9.290;2023-04-24T07:31:53;2.20;;;1.42;;
43152;SDS011;28756;49.064;9.290;2023-04-24T07:34:19;3.55;;;1.20;;
43152;SDS011;28756;49.064;9.290;2023-04-24T07:36:45;1.65;;;1.20;;
43152;SDS011;28756;49.064;9.290;2023-04-24T07:39:12;1.17;;;0.93;;
43152;SDS011;28756;49.064;9.290;2023-04-24T07:41:38;2.28;;;1.13;;
43152;SDS011;28756;49.064;9.290;2023-04-24T07:44:03;3.88;;;1.20;;
43152;SDS011;28756;49.064;9.290;2023-04-24T07:46:30;10.30;;;1.40;;
43152;SDS011;28756;49.064;9.290;2023-04-24T07:48:55;1.75;;;1.13;;
43152;SDS011;28756;49.064;9.290;2023-04-24T07:51:21;2.35;;;1.35;;
43152;SDS011;28756;49.064;9.290;2023-04-24T07:53:47;2.90;;;1.08;;
43152;SDS011;28756;49.064;9.290;2023-04-24T07:56:13;1.20;;;1.00;;
43152;SDS011;28756;49.064;9.290;2023-04-24T07:58:38;1.50;;;1.00;;
43152;SDS011;28756;49.064;9.290;2023-04-24T08:01:04;2.85;;;1.05;;
43152;SDS011;28756;49.064;9.290;2023-04-24T08:03:30;1.75;;;0.95;;
43152;SDS011;28756;49.064;9.290;2023-04-24T08:05:56;1.35;;;0.88;;
43152;SDS011;28756;49.064;9.290;2023-04-24T08:08:22;1.75;;;1.00;;
43152;SDS011;28756;49.064;9.290;2023-04-24T08:10:48;2.08;;;1.10;;
43152;SDS011;28756;49.064;9.290;2023-04-24T08:13:15;0.88;;;0.75;;
43152;SDS011;28756;49.064;9.290;2023-04-24T08:15:40;1.67;;;0.77;;
43152;SDS011;28756;49.064;9.290;2023-04-24T08:18:06;1.52;;;0.85;;
43152;SDS011;28756;49.064;9.290;2023-04-24T08:20:32;1.33;;;0.65;;
43152;SDS011;28756;49.064;9.290;2023-04-24T08:22:58;1.50;;;0.80;;
43152;SDS011;28756;49.064;9.290;2023-04-24T08:25:24;1.05;;;0.73;;
43152;SDS011;28756;49.064;9.290;2023-04-24T08:27:50;1.15;;;0.80;;
43152;SDS011;28756;49.064;9.290;2023-04-24T08:30:16;1.70;;;0.93;;
43152;SDS011;28756;49.064;9.290;2023-04-24T08:32:43;1.20;;;0.73;;
43152;SDS011;28756;49.064;9.290;2023-04-24T08:35:09;2.30;;;0.90;;
43152;SDS011;28756;49.064;9.290;2023-04-24T08:37:35;1.17;;;0.70;;
43152;SDS011;28756;49.064;9.290;2023-04-24T08:40:01;1.67;;;0.80;;
43152;SDS011;28756;49.064;9.290;2023-04-24T08:42:31;1.85;;;0.60;;
43152;SDS011;28756;49.064;9.290;2023-04-24T08:44:59;0.73;;;0.60;;
43152;SDS011;28756;49.064;9.290;2023-04-24T08:47:25;1.30;;;0.70;;
43152;SDS011;28756;49.064;9.290;2023-04-24T08:49:52;1.52;;;0.68;;
43152;SDS011;28756;49.064;9.290;2023-04-24T08:52:20;2.83;;;0.68;;
43152;SDS011;28756;49.064;9.290;2023-04-24T08:54:47;0.85;;;0.73;;
43152;SDS011;28756;49.064;9.290;2023-04-24T08:57:13;1.50;;;0.70;;
43152;SDS011;28756;49.064;9.290;2023-04-24T08:59:40;2.28;;;0.70;;
43152;SDS011;28756;49.064;9.290;2023-04-24T09:02:08;2.80;;;1.20;;
43152;SDS011;28756;49.064;9.290;2023-04-24T09:04:36;0.95;;;0.70;;
43152;SDS011;28756;49.064;9.290;2023-04-24T09:07:03;1.00;;;0.90;;
43152;SDS011;28756;49.064;9.290;2023-04-24T09:09:31;3.72;;;0.70;;
43152;SDS011;28756;49.064;9.290;2023-04-24T09:11:59;1.60;;;0.70;;
43152;SDS011;28756;49.064;9.290;2023-04-24T09:14:25;1.08;;;0.57;;
43152;SDS011;28756;49.064;9.290;2023-04-24T09:16:52;2.13;;;0.63;;
43152;SDS011;28756;49.064;9.290;2023-04-24T09:19:18;3.63;;;0.90;;
43152;SDS011;28756;49.064;9.290;2023-04-24T09:21:46;1.35;;;0.60;;
43152;SDS011;28756;49.064;9.290;2023-04-24T09:24:16;3.17;;;0.57;;
43152;SDS011;28756;49.064;9.290;2023-04-24T09:26:47;1.58;;;0.75;;
43152;SDS011;28756;49.064;9.290;2023-04-24T09:29:15;2.35;;;0.70;;
43152;SDS011;28756;49.064;9.290;2023-04-24T09:31:41;0.73;;;0.60;;
43152;SDS011;28756;49.064;9.290;2023-04-24T09:34:08;0.80;;;0.50;;
43152;SDS011;28756;49.064;9.290;2023-04-24T09:36:34;1.08;;;0.70;;
43152;SDS011;28756;49.064;9.290;2023-04-24T09:39:10;0.95;;;0.60;;
43152;SDS011;28756;49.064;9.290;2023-04-24T09:41:47;1.08;;;0.50;;
43152;SDS011;28756;49.064;9.290;2023-04-24T09:44:18;4.20;;;0.85;;
43152;SDS011;28756;49.064;9.290;2023-04-24T09:46:49;1.73;;;0.70;;
43152;SDS011;28756;49.064;9.290;2023-04-24T09:49:24;2.13;;;0.80;;
43152;SDS011;28756;49.064;9.290;2023-04-24T09:51:51;2.05;;;1.00;;
43152;SDS011;28756;49.064;9.290;2023-04-24T09:54:27;2.05;;;0.80;;
43152;SDS011;28756;49.064;9.290;2023-04-24T09:56:54;1.63;;;0.90;;
43152;SDS011;28756;49.064;9.290;2023-04-24T09:59:21;2.15;;;0.70;;
43152;SDS011;28756;49.064;9.290;2023-04-24T10:01:47;0.80;;;0.55;;
43152;SDS011;28756;49.064;9.290;2023-04-24T10:04:25;1.02;;;0.75;;
43152;SDS011;28756;49.064;9.290;2023-04-24T10:06:53;1.30;;;0.70;;
43152;SDS011;28756;49.064;9.290;2023-04-24T10:09:22;1.05;;;0.70;;
43152;SDS011;28756;49.064;9.290;2023-04-24T10:11:51;1.15;;;0.95;;
43152;SDS011;28756;49.064;9.290;2023-04-24T10:14:19;2.50;;;1.10;;
43152;SDS011;28756;49.064;9.290;2023-04-24T10:16:47;1.65;;;1.00;;
43152;SDS011;28756;49.064;9.290;2023-04-24T10:19:14;1.30;;;1.00;;
43152;SDS011;28756;49.064;9.290;2023-04-24T10:21:43;1.42;;;0.98;;
43152;SDS011;28756;49.064;9.290;2023-04-24T10:24:16;1.67;;;0.90;;
43152;SDS011;28756;49.064;9.290;2023-04-24T10:26:45;1.15;;;1.00;;
43152;SDS011;28756;49.064;9.290;2023-04-24T10:29:13;1.60;;;1.00;;
43152;SDS011;28756;49.064;9.290;2023-04-24T10:31:42;1.90;;;1.02;;
43152;SDS011;28756;49.064;9.290;2023-04-24T10:34:11;2.25;;;1.00;;
43152;SDS011;28756;49.064;9.290;2023-04-24T10:36:40;2.35;;;1.05;;
43152;SDS011;28756;49.064;9.290;2023-04-24T10:39:11;3.17;;;1.20;;
43152;SDS011;28756;49.064;9.290;2023-04-24T10:41:39;1.50;;;1.20;;
43152;SDS011;28756;49.064;9.290;2023-04-24T10:46:43;2.78;;;1.60;;
43152;SDS011;28756;49.064;9.290;2023-04-24T10:49:10;2.00;;;1.35;;
43152;SDS011;28756;49.064;9.290;2023-04-24T10:51:47;1.45;;;1.20;;
43152;SDS011;28756;49.064;9.290;2023-04-24T10:54:27;2.13;;;1.10;;
43152;SDS011;28756;49.064;9.290;2023-04-24T10:59:45;2.40;;;1.20;;
43152;SDS011;28756;49.064;9.290;2023-04-24T11:02:16;1.95;;;1.35;;
43152;SDS011;28756;49.064;9.290;2023-04-24T11:04:43;2.47;;;1.38;;
43152;SDS011;28756;49.064;9.290;2023-04-24T11:07:10;4.25;;;1.40;;
43152;SDS011;28756;49.064;9.290;2023-04-24T11:09:37;1.25;;;1.15;;
43152;SDS011;28756;49.064;9.290;2023-04-24T11:12:09;2.25;;;1.40;;
43152;SDS011;28756;49.064;9.290;2023-04-24T11:14:59;1.45;;;1.30;;
43152;SDS011;28756;49.064;9.290;2023-04-24T11:17:38;1.77;;;1.40;;
43152;SDS011;28756;49.064;9.290;2023-04-24T11:20:11;2.08;;;1.27;;
43152;SDS011;28756;49.064;9.290;2023-04-24T11:22:42;1.88;;;1.20;;
43152;SDS011;28756;49.064;9.290;2023-04-24T11:25:08;1.35;;;1.10;;
43152;SDS011;28756;49.064;9.290;2023-04-24T11:27:40;1.77;;;1.05;;
43152;SDS011;28756;49.064;9.290;2023-04-24T11:30:09;1.48;;;1.05;;
43152;SDS011;28756;49.064;9.290;2023-04-24T11:32:36;1.55;;;1.20;;
43152;SDS011;28756;49.064;9.290;2023-04-24T11:35:08;1.63;;;1.23;;
43152;SDS011;28756;49.064;9.290;2023-04-24T11:37:46;1.30;;;1.20;;
43152;SDS011;28756;49.064;9.290;2023-04-24T11:40:14;1.35;;;1.00;;
43152;SDS011;28756;49.064;9.290;2023-04-24T11:42:42;2.55;;;1.75;;
43152;SDS011;28756;49.064;9.290;2023-04-24T11:45:11;2.20;;;1.50;;
43152;SDS011;28756;49.064;9.290;2023-04-24T11:47:42;1.50;;;1.40;;
43152;SDS011;28756;49.064;9.290;2023-04-24T11:50:12;1.77;;;1.55;;
43152;SDS011;28756;49.064;9.290;2023-04-24T11:52:44;1.98;;;1.55;;
43152;SDS011;28756;49.064;9.290;2023-04-24T11:57:47;3.05;;;1.60;;
43152;SDS011;28756;49.064;9.290;2023-04-24T12:00:19;2.92;;;1.90;;
43152;SDS011;28756;49.064;9.290;2023-04-24T12:05:34;2.20;;;1.60;;
43152;SDS011;28756;49.064;9.290;2023-04-24T12:08:00;2.78;;;1.50;;
43152;SDS011;28756;49.064;9.290;2023-04-24T12:10:27;2.60;;;1.60;;
43152;SDS011;28756;49.064;9.290;2023-04-24T12:12:55;2.85;;;1.40;;
43152;SDS011;28756;49.064;9.290;2023-04-24T12:15:22;1.77;;;1.30;;
43152;SDS011;28756;49.064;9.290;2023-04-24T12:17:53;1.60;;;1.30;;
43152;SDS011;28756;49.064;9.290;2023-04-24T12:20:30;1.88;;;1.30;;
43152;SDS011;28756;49.064;9.290;2023-04-24T12:22:58;2.85;;;1.60;;
43152;SDS011;28756;49.064;9.290;2023-04-24T12:25:26;2.08;;;1.50;;
43152;SDS011;28756;49.064;9.290;2023-04-24T12:27:55;1.48;;;1.35;;
43152;SDS011;28756;49.064;9.290;2023-04-24T12:30:39;2.15;;;1.58;;
43152;SDS011;28756;49.064;9.290;2023-04-24T12:33:15;1.95;;;1.70;;
43152;SDS011;28756;49.064;9.290;2023-04-24T12:35:47;1.63;;;1.50;;
43152;SDS011;28756;49.064;9.290;2023-04-24T12:38:21;2.63;;;1.77;;
43152;SDS011;28756;49.064;9.290;2023-04-24T12:41:04;3.08;;;2.00;;
43152;SDS011;28756;49.064;9.290;2023-04-24T12:43:32;1.95;;;1.83;;
43152;SDS011;28756;49.064;9.290;2023-04-24T12:45:59;2.10;;;1.83;;
43152;SDS011;28756;49.064;9.290;2023-04-24T12:48:28;3.08;;;1.80;;
43152;SDS011;28756;49.064;9.290;2023-04-24T12:50:54;1.65;;;1.17;;
43152;SDS011;28756;49.064;9.290;2023-04-24T12:53:22;1.63;;;1.20;;
43152;SDS011;28756;49.064;9.290;2023-04-24T12:55:48;1.65;;;1.40;;
43152;SDS011;28756;49.064;9.290;2023-04-24T12:58:18;1.35;;;1.20;;
43152;SDS011;28756;49.064;9.290;2023-04-24T13:00:47;2.63;;;1.27;;
43152;SDS011;28756;49.064;9.290;2023-04-24T13:03:13;1.42;;;1.20;;
43152;SDS011;28756;49.064;9.290;2023-04-24T13:05:39;1.20;;;1.05;;
43152;SDS011;28756;49.064;9.290;2023-04-24T13:08:07;1.85;;;1.20;;
43152;SDS011;28756;49.064;9.290;2023-04-24T13:10:33;1.90;;;1.33;;
43152;SDS011;28756;49.064;9.290;2023-04-24T13:12:59;2.17;;;1.63;;
43152;SDS011;28756;49.064;9.290;2023-04-24T13:15:25;2.42;;;1.60;;
43152;SDS011;28756;49.064;9.290;2023-04-24T13:17:51;2.20;;;1.80;;
43152;SDS011;28756;49.064;9.290;2023-04-24T13:20:17;3.28;;;1.75;;
43152;SDS011;28756;49.064;9.290;2023-04-24T13:22:43;4.05;;;1.60;;
43152;SDS011;28756;49.064;9.290;2023-04-24T13:25:09;2.53;;;1.63;;
43152;SDS011;28756;49.064;9.290;2023-04-24T13:27:35;1.85;;;1.48;;
43152;SDS011;28756;49.064;9.290;2023-04-24T13:30:03;2.42;;;1.90;;
43152;SDS011;28756;49.064;9.290;2023-04-24T13:32:30;2.55;;;1.80;;
43152;SDS011;28756;49.064;9.290;2023-04-24T13:34:56;2.15;;;1.60;;
43152;SDS011;28756;49.064;9.290;2023-04-24T13:37:21;2.38;;;1.75;;
43152;SDS011;28756;49.064;9.290;2023-04-24T13:39:47;2.22;;;1.50;;
43152;SDS011;28756;49.064;9.290;2023-04-24T13:42:13;2.33;;;1.83;;
43152;SDS011;28756;49.064;9.290;2023-04-24T13:44:39;2.10;;;1.27;;
43152;SDS011;28756;49.064;9.290;2023-04-24T13:47:05;3.03;;;1.88;;
43152;SDS011;28756;49.064;9.290;2023-04-24T13:49:31;2.55;;;1.63;;
43152;SDS011;28756;49.064;9.290;2023-04-24T13:51:57;1.90;;;1.40;;
43152;SDS011;28756;49.064;9.290;2023-04-24T13:54:23;3.10;;;1.40;;
43152;SDS011;28756;49.064;9.290;2023-04-24T13:56:50;3.05;;;1.80;;
43152;SDS011;28756;49.064;9.290;2023-04-24T13:59:17;1.67;;;1.35;;
43152;SDS011;28756;49.064;9.290;2023-04-24T14:01:44;2.13;;;1.80;;
43152;SDS011;28756;49.064;9.290;2023-04-24T14:04:10;2.55;;;2.03;;
43152;SDS011;28756;49.064;9.290;2023-04-24T14:06:36;3.13;;;1.77;;
43152;SDS011;28756;49.064;9.290;2023-04-24T14:09:01;4.07;;;2.30;;
43152;SDS011;28756;49.064;9.290;2023-04-24T14:11:27;2.92;;;1.80;;
43152;SDS011;28756;49.064;9.290;2023-04-24T14:13:54;2.33;;;1.50;;
43152;SDS011;28756;49.064;9.290;2023-04-24T14:16:23;3.08;;;1.50;;
43152;SDS011;28756;49.064;9.290;2023-04-24T14:18:50;2.17;;;1.60;;
43152;SDS011;28756;49.064;9.290;2023-04-24T14:21:15;2.13;;;1.60;;
43152;SDS011;28756;49.064;9.290;2023-04-24T14:23:41;3.22;;;1.67;;
43152;SDS011;28756;49.064;9.290;2023-04-24T14:26:07;2.67;;;1.55;;
43152;SDS011;28756;49.064;9.290;2023-04-24T14:28:33;2.55;;;1.60;;
43152;SDS011;28756;49.064;9.290;2023-04-24T14:30:59;3.40;;;1.60;;
43152;SDS011;28756;49.064;9.290;2023-04-24T14:33:24;2.53;;;1.88;;
43152;SDS011;28756;49.064;9.290;2023-04-24T14:35:50;2.47;;;1.63;;
43152;SDS011;28756;49.064;9.290;2023-04-24T14:38:17;2.05;;;1.25;;
43152;SDS011;28756;49.064;9.290;2023-04-24T14:40:43;2.53;;;1.50;;
43152;SDS011;28756;49.064;9.290;2023-04-24T14:43:09;2.15;;;1.30;;
43152;SDS011;28756;49.064;9.290;2023-04-24T14:45:35;1.27;;;1.17;;
43152;SDS011;28756;49.064;9.290;2023-04-24T14:48:03;2.15;;;1.52;;
43152;SDS011;28756;49.064;9.290;2023-04-24T14:50:29;2.55;;;1.55;;
43152;SDS011;28756;49.064;9.290;2023-04-24T14:52:55;2.45;;;1.77;;
43152;SDS011;28756;49.064;9.290;2023-04-24T14:55:24;2.17;;;1.60;;
43152;SDS011;28756;49.064;9.290;2023-04-24T14:57:51;3.80;;;1.83;;